createdAt,value
2017-01-01T00:00:41.144Z,1016.99
2017-01-01T00:01:51.879Z,1017.02
2017-01-01T00:03:02.607Z,1016.97
2017-01-01T00:04:13.349Z,1016.98
2017-01-01T00:05:24.099Z,1017
2017-01-01T00:06:34.812Z,1016.98
2017-01-01T00:07:45.520Z,1016.99
2017-01-01T00:08:56.262Z,1016.99
2017-01-01T00:10:07.008Z,1016.96
2017-01-01T00:11:17.724Z,1016.97
2017-01-01T00:12:28.476Z,1016.97
2017-01-01T00:13:39.200Z,1016.99
2017-01-01T00:14:49.924Z,1016.97
2017-01-01T00:16:00.670Z,1016.97
2017-01-01T00:17:11.402Z,1016.94
2017-01-01T00:18:22.125Z,1016.95
2017-01-01T00:19:32.854Z,1016.94
2017-01-01T00:20:43.572Z,1016.95
2017-01-01T00:21:54.275Z,1016.9
2017-01-01T00:23:05.014Z,1016.92
2017-01-01T00:24:15.752Z,1016.9
2017-01-01T00:25:26.848Z,1016.89
2017-01-01T00:26:37.556Z,1016.84
2017-01-01T00:27:48.301Z,1016.85
2017-01-01T00:28:59.028Z,1016.84
2017-01-01T00:30:09.746Z,1016.8
2017-01-01T00:31:20.464Z,1016.77
2017-01-01T00:32:31.156Z,1016.77
2017-01-01T00:33:41.899Z,1016.72
2017-01-01T00:34:52.623Z,1016.73
2017-01-01T00:36:03.344Z,1016.74
2017-01-01T00:37:14.064Z,1016.68
2017-01-01T00:38:24.786Z,1016.74
2017-01-01T00:39:35.503Z,1016.7
2017-01-01T00:40:46.230Z,1016.63
2017-01-01T00:41:56.950Z,1016.62
2017-01-01T00:43:07.688Z,1016.61
2017-01-01T00:44:18.420Z,1016.59
2017-01-01T00:45:29.137Z,1016.57
2017-01-01T00:46:39.865Z,1016.53
2017-01-01T00:47:50.604Z,1016.55
2017-01-01T00:49:01.331Z,1016.53
2017-01-01T00:50:12.067Z,1016.53
2017-01-01T00:51:22.816Z,1016.6
2017-01-01T00:52:33.540Z,1016.55
2017-01-01T00:53:44.284Z,1016.55
2017-01-01T00:54:54.997Z,1016.53
2017-01-01T00:56:05.721Z,1016.53
2017-01-01T00:57:16.471Z,1016.53
2017-01-01T00:58:27.196Z,1016.51
2017-01-01T00:59:37.931Z,1016.52
2017-01-01T01:00:48.659Z,1016.5
2017-01-01T01:01:59.380Z,1016.49
2017-01-01T01:03:10.131Z,1016.5
2017-01-01T01:04:21.222Z,1016.46
2017-01-01T01:05:31.939Z,1016.47
2017-01-01T01:06:42.717Z,1016.49
2017-01-01T01:07:53.456Z,1016.49
2017-01-01T01:09:04.198Z,1016.46
2017-01-01T01:10:14.909Z,1016.44
2017-01-01T01:11:25.648Z,1016.45
2017-01-01T01:12:36.369Z,1016.42
2017-01-01T01:13:47.094Z,1016.42
2017-01-01T01:14:57.844Z,1016.45
2017-01-01T01:16:08.587Z,1016.4
2017-01-01T01:17:19.334Z,1016.44
2017-01-01T01:18:30.078Z,1016.4
2017-01-01T01:19:40.813Z,1016.4
2017-01-01T01:20:51.516Z,1016.45
2017-01-01T01:22:02.212Z,1016.42
2017-01-01T01:23:12.932Z,1016.41
2017-01-01T01:24:23.657Z,1016.43
2017-01-01T01:25:34.392Z,1016.41
2017-01-01T01:26:45.165Z,1016.43
2017-01-01T01:27:55.868Z,1016.41
2017-01-01T01:29:06.568Z,1016.35
2017-01-01T01:30:17.265Z,1016.35
2017-01-01T01:31:28.047Z,1016.34
2017-01-01T01:32:38.792Z,1016.31
2017-01-01T01:33:49.489Z,1016.32
2017-01-01T01:35:00.215Z,1016.3
2017-01-01T01:36:10.942Z,1016.25
2017-01-01T01:37:21.663Z,1016.22
2017-01-01T01:38:32.398Z,1016.24
2017-01-01T01:39:43.130Z,1016.23
2017-01-01T01:40:53.853Z,1016.22
2017-01-01T01:42:04.596Z,1016.19
2017-01-01T01:43:15.336Z,1016.21
2017-01-01T01:44:26.057Z,1016.2
2017-01-01T01:45:36.781Z,1016.17
2017-01-01T01:46:47.530Z,1016.16
2017-01-01T01:47:58.251Z,1016.18
2017-01-01T01:49:08.999Z,1016.16
2017-01-01T01:50:19.711Z,1016.13
2017-01-01T01:51:30.458Z,1016.1
2017-01-01T01:52:41.585Z,1016.11
2017-01-01T01:53:52.303Z,1016.08
2017-01-01T01:55:03.020Z,1016.06
2017-01-01T01:56:13.720Z,1016.09
2017-01-01T01:57:24.463Z,1016.07
2017-01-01T01:58:35.208Z,1016.06
2017-01-01T01:59:45.939Z,1016.01
2017-01-01T02:00:56.683Z,1016.03
2017-01-01T02:02:07.403Z,1015.98
2017-01-01T02:03:18.176Z,1016
2017-01-01T02:04:28.892Z,1015.96
2017-01-01T02:05:39.638Z,1015.96
2017-01-01T02:06:50.838Z,1015.93
2017-01-01T02:08:01.551Z,1015.95
2017-01-01T02:09:12.244Z,1015.9
2017-01-01T02:10:22.976Z,1015.89
2017-01-01T02:11:33.694Z,1015.87
2017-01-01T02:12:44.414Z,1015.8
2017-01-01T02:13:55.152Z,1015.77
2017-01-01T02:15:05.886Z,1015.74
2017-01-01T02:16:16.605Z,1015.75
2017-01-01T02:17:27.344Z,1015.69
2017-01-01T02:18:38.069Z,1015.71
2017-01-01T02:19:48.821Z,1015.68
2017-01-01T02:20:59.557Z,1015.66
2017-01-01T02:22:10.281Z,1015.59
2017-01-01T02:23:20.981Z,1015.56
2017-01-01T02:24:31.724Z,1015.59
2017-01-01T02:25:42.454Z,1015.52
2017-01-01T02:26:53.158Z,1015.56
2017-01-01T02:28:03.894Z,1015.46
2017-01-01T02:29:14.629Z,1015.47
2017-01-01T02:30:25.356Z,1015.45
2017-01-01T02:31:36.067Z,1015.49
2017-01-01T02:32:46.799Z,1015.49
2017-01-01T02:33:57.534Z,1015.49
2017-01-01T02:35:08.257Z,1015.44
2017-01-01T02:36:18.988Z,1015.46
2017-01-01T02:37:29.714Z,1015.44
2017-01-01T02:38:40.447Z,1015.37
2017-01-01T02:39:51.148Z,1015.33
2017-01-01T02:41:01.897Z,1015.34
2017-01-01T02:42:12.641Z,1015.37
2017-01-01T02:43:23.356Z,1015.35
2017-01-01T02:44:34.110Z,1015.34
2017-01-01T02:45:44.854Z,1015.34
2017-01-01T02:46:55.577Z,1015.37
2017-01-01T02:48:06.336Z,1015.35
2017-01-01T02:49:17.070Z,1015.37
2017-01-01T02:50:27.803Z,1015.35
2017-01-01T02:51:38.528Z,1015.35
2017-01-01T02:52:49.253Z,1015.32
2017-01-01T02:53:59.945Z,1015.31
2017-01-01T02:55:10.670Z,1015.24
2017-01-01T02:56:21.391Z,1015.26
2017-01-01T02:57:32.123Z,1015.18
2017-01-01T02:58:42.850Z,1015.17
2017-01-01T02:59:53.571Z,1015.17
2017-01-01T03:01:04.295Z,1015.11
2017-01-01T03:02:15.038Z,1015.09
2017-01-01T03:03:25.763Z,1015.1
2017-01-01T03:04:36.491Z,1015.09
2017-01-01T03:05:47.227Z,1015.06
2017-01-01T03:06:57.955Z,1015.06
2017-01-01T03:08:08.671Z,1015.03
2017-01-01T03:09:19.390Z,1014.99
2017-01-01T03:10:30.110Z,1014.98
2017-01-01T03:11:40.830Z,1014.96
2017-01-01T03:12:51.551Z,1014.91
2017-01-01T03:14:02.284Z,1014.93
2017-01-01T03:15:12.994Z,1014.9
2017-01-01T03:16:23.750Z,1014.89
2017-01-01T03:17:34.497Z,1014.8
2017-01-01T03:18:45.219Z,1014.85
2017-01-01T03:19:55.938Z,1014.81
2017-01-01T03:21:06.657Z,1014.77
2017-01-01T03:22:17.369Z,1014.72
2017-01-01T03:23:28.095Z,1014.72
2017-01-01T03:24:38.811Z,1014.69
2017-01-01T03:25:49.511Z,1014.77
2017-01-01T03:27:00.257Z,1014.75
2017-01-01T03:28:10.990Z,1014.73
2017-01-01T03:29:21.731Z,1014.75
2017-01-01T03:30:32.466Z,1014.77
2017-01-01T03:31:43.195Z,1014.72
2017-01-01T03:32:53.920Z,1014.79
2017-01-01T03:34:04.690Z,1014.74
2017-01-01T03:35:15.432Z,1014.78
2017-01-01T03:36:26.183Z,1014.78
2017-01-01T03:37:36.920Z,1014.74
2017-01-01T03:38:47.649Z,1014.74
2017-01-01T03:39:58.374Z,1014.7
2017-01-01T03:41:09.112Z,1014.67
2017-01-01T03:42:19.834Z,1014.74
2017-01-01T03:43:30.547Z,1014.65
2017-01-01T03:44:41.271Z,1014.62
2017-01-01T03:45:51.992Z,1014.64
2017-01-01T03:47:02.713Z,1014.56
2017-01-01T03:48:13.489Z,1014.52
2017-01-01T03:49:24.209Z,1014.51
2017-01-01T03:50:34.930Z,1014.52
2017-01-01T03:51:45.655Z,1014.48
2017-01-01T03:52:56.397Z,1014.49
2017-01-01T03:54:07.093Z,1014.49
2017-01-01T03:55:18.209Z,1014.47
2017-01-01T03:56:28.918Z,1014.42
2017-01-01T03:57:39.637Z,1014.4
2017-01-01T03:58:50.361Z,1014.38
2017-01-01T04:00:01.090Z,1014.33
2017-01-01T04:01:11.818Z,1014.33
2017-01-01T04:02:22.533Z,1014.29
2017-01-01T04:03:33.253Z,1014.36
2017-01-01T04:04:43.977Z,1014.29
2017-01-01T04:05:54.701Z,1014.29
2017-01-01T04:07:05.407Z,1014.22
2017-01-01T04:08:16.144Z,1014.25
2017-01-01T04:09:26.858Z,1014.23
2017-01-01T04:10:37.615Z,1014.19
2017-01-01T04:11:48.365Z,1014.21
2017-01-01T04:12:59.078Z,1014.19
2017-01-01T04:14:09.802Z,1014.16
2017-01-01T04:15:20.523Z,1014.17
2017-01-01T04:16:31.266Z,1014.11
2017-01-01T04:17:41.965Z,1014.16
2017-01-01T04:18:52.703Z,1014.16
2017-01-01T04:20:03.404Z,1014.16
2017-01-01T04:21:14.120Z,1014.1
2017-01-01T04:22:24.838Z,1014.15
2017-01-01T04:23:35.570Z,1014.09
2017-01-01T04:24:46.308Z,1014.09
2017-01-01T04:25:57.029Z,1014.05
2017-01-01T04:27:08.133Z,1014.06
2017-01-01T04:28:18.854Z,1014.04
2017-01-01T04:29:29.596Z,1013.99
2017-01-01T04:30:40.337Z,1014.03
2017-01-01T04:31:51.091Z,1014.03
2017-01-01T04:33:01.816Z,1013.98
2017-01-01T04:34:12.561Z,1014.01
2017-01-01T04:35:23.305Z,1014.01
2017-01-01T04:36:34.025Z,1014
2017-01-01T04:37:44.772Z,1013.98
2017-01-01T04:38:55.481Z,1013.96
2017-01-01T04:40:06.206Z,1013.98
2017-01-01T04:41:16.924Z,1013.99
2017-01-01T04:42:27.672Z,1013.96
2017-01-01T04:43:38.377Z,1013.91
2017-01-01T04:44:49.123Z,1013.94
2017-01-01T04:45:59.866Z,1013.91
2017-01-01T04:47:10.590Z,1013.88
2017-01-01T04:48:21.326Z,1013.88
2017-01-01T04:49:32.058Z,1013.87
2017-01-01T04:50:42.801Z,1013.87
2017-01-01T04:51:53.524Z,1013.84
2017-01-01T04:53:04.272Z,1013.83
2017-01-01T04:54:15.006Z,1013.86
2017-01-01T04:55:25.738Z,1013.83
2017-01-01T04:56:36.460Z,1013.83
2017-01-01T04:57:47.173Z,1013.79
2017-01-01T04:58:57.924Z,1013.77
2017-01-01T05:00:08.649Z,1013.74
2017-01-01T05:01:19.413Z,1013.72
2017-01-01T05:02:30.158Z,1013.75
2017-01-01T05:03:40.911Z,1013.77
2017-01-01T05:04:51.633Z,1013.74
2017-01-01T05:06:02.394Z,1013.77
2017-01-01T05:07:13.100Z,1013.74
2017-01-01T05:08:23.847Z,1013.77
2017-01-01T05:09:34.592Z,1013.75
2017-01-01T05:10:45.339Z,1013.73
2017-01-01T05:11:56.077Z,1013.68
2017-01-01T05:13:06.802Z,1013.71
2017-01-01T05:14:17.502Z,1013.71
2017-01-01T05:15:28.220Z,1013.76
2017-01-01T05:16:38.933Z,1013.72
2017-01-01T05:17:49.658Z,1013.69
2017-01-01T05:19:00.386Z,1013.66
2017-01-01T05:20:11.109Z,1013.67
2017-01-01T05:21:21.850Z,1013.68
2017-01-01T05:22:32.575Z,1013.65
2017-01-01T05:23:43.293Z,1013.64
2017-01-01T05:24:54.039Z,1013.73
2017-01-01T05:26:04.764Z,1013.69
2017-01-01T05:27:15.502Z,1013.68
2017-01-01T05:28:26.247Z,1013.7
2017-01-01T05:29:36.990Z,1013.68
2017-01-01T05:30:47.723Z,1013.69
2017-01-01T05:31:58.435Z,1013.69
2017-01-01T05:33:09.537Z,1013.72
2017-01-01T05:34:20.260Z,1013.73
2017-01-01T05:35:30.974Z,1013.66
2017-01-01T05:36:41.718Z,1013.69
2017-01-01T05:37:52.421Z,1013.68
2017-01-01T05:39:03.163Z,1013.7
2017-01-01T05:40:13.881Z,1013.72
2017-01-01T05:41:24.602Z,1013.69
2017-01-01T05:42:35.681Z,1013.64
2017-01-01T05:43:46.406Z,1013.65
2017-01-01T05:44:57.115Z,1013.65
2017-01-01T05:46:07.826Z,1013.62
2017-01-01T05:47:18.568Z,1013.62
2017-01-01T05:48:29.306Z,1013.59
2017-01-01T05:49:40.011Z,1013.58
2017-01-01T05:50:50.770Z,1013.6
2017-01-01T05:52:01.495Z,1013.59
2017-01-01T05:53:12.213Z,1013.51
2017-01-01T05:54:22.934Z,1013.57
2017-01-01T05:55:33.638Z,1013.55
2017-01-01T05:56:44.376Z,1013.53
2017-01-01T05:57:55.108Z,1013.53
2017-01-01T05:59:05.829Z,1013.57
2017-01-01T06:00:16.578Z,1013.54
2017-01-01T06:01:27.343Z,1013.5
2017-01-01T06:02:38.065Z,1013.48
2017-01-01T06:03:48.762Z,1013.46
2017-01-01T06:04:59.476Z,1013.48
2017-01-01T06:06:10.195Z,1013.48
2017-01-01T06:07:20.906Z,1013.46
2017-01-01T06:08:31.669Z,1013.46
2017-01-01T06:09:42.394Z,1013.4
2017-01-01T06:10:53.141Z,1013.44
2017-01-01T06:12:03.858Z,1013.4
2017-01-01T06:13:14.600Z,1013.37
2017-01-01T06:14:25.325Z,1013.33
2017-01-01T06:15:36.067Z,1013.33
2017-01-01T06:16:47.170Z,1013.29
2017-01-01T06:17:57.888Z,1013.28
2017-01-01T06:19:08.615Z,1013.29
2017-01-01T06:20:19.380Z,1013.19
2017-01-01T06:21:30.102Z,1013.21
2017-01-01T06:22:40.821Z,1013.21
2017-01-01T06:23:51.564Z,1013.16
2017-01-01T06:25:02.293Z,1013.13
2017-01-01T06:26:13.017Z,1013.11
2017-01-01T06:27:23.724Z,1013.12
2017-01-01T06:28:34.436Z,1013.1
2017-01-01T06:29:45.155Z,1013.1
2017-01-01T06:30:55.887Z,1013.11
2017-01-01T06:32:06.616Z,1013.08
2017-01-01T06:33:17.333Z,1013.09
2017-01-01T06:34:28.051Z,1013.05
2017-01-01T06:35:38.782Z,1013.06
2017-01-01T06:36:49.505Z,1013.04
2017-01-01T06:38:00.215Z,1013.05
2017-01-01T06:39:10.920Z,1013.04
2017-01-01T06:40:21.639Z,1012.98
2017-01-01T06:41:32.352Z,1012.98
2017-01-01T06:42:43.059Z,1013.02
2017-01-01T06:43:53.805Z,1012.99
2017-01-01T06:45:04.543Z,1012.94
2017-01-01T06:46:15.294Z,1012.93
2017-01-01T06:47:26.033Z,1012.87
2017-01-01T06:48:36.761Z,1012.91
2017-01-01T06:49:47.512Z,1012.93
2017-01-01T06:50:58.281Z,1012.91
2017-01-01T06:52:09.020Z,1012.96
2017-01-01T06:53:19.750Z,1012.95
2017-01-01T06:54:30.471Z,1012.99
2017-01-01T06:55:41.212Z,1012.96
2017-01-01T06:56:51.936Z,1012.89
2017-01-01T06:58:02.655Z,1012.85
2017-01-01T06:59:13.380Z,1012.85
2017-01-01T07:00:24.100Z,1012.84
2017-01-01T07:01:34.849Z,1012.84
2017-01-01T07:02:45.567Z,1012.78
2017-01-01T07:03:56.306Z,1012.77
2017-01-01T07:05:07.052Z,1012.8
2017-01-01T07:06:17.785Z,1012.77
2017-01-01T07:07:28.502Z,1012.74
2017-01-01T07:08:39.244Z,1012.77
2017-01-01T07:09:49.969Z,1012.72
2017-01-01T07:11:00.705Z,1012.77
2017-01-01T07:12:11.453Z,1012.72
2017-01-01T07:13:22.183Z,1012.7
2017-01-01T07:14:32.928Z,1012.7
2017-01-01T07:15:43.699Z,1012.71
2017-01-01T07:16:54.417Z,1012.76
2017-01-01T07:18:05.188Z,1012.74
2017-01-01T07:19:15.909Z,1012.79
2017-01-01T07:20:26.630Z,1012.79
2017-01-01T07:21:37.343Z,1012.77
2017-01-01T07:22:48.064Z,1012.76
2017-01-01T07:23:58.779Z,1012.8
2017-01-01T07:25:09.491Z,1012.74
2017-01-01T07:26:20.189Z,1012.78
2017-01-01T07:27:30.903Z,1012.76
2017-01-01T07:28:41.653Z,1012.7
2017-01-01T07:29:52.394Z,1012.71
2017-01-01T07:31:03.140Z,1012.72
2017-01-01T07:32:13.866Z,1012.72
2017-01-01T07:33:24.589Z,1012.72
2017-01-01T07:34:35.311Z,1012.75
2017-01-01T07:35:46.034Z,1012.73
2017-01-01T07:36:56.768Z,1012.78
2017-01-01T07:38:07.489Z,1012.78
2017-01-01T07:39:18.185Z,1012.78
2017-01-01T07:40:28.913Z,1012.76
2017-01-01T07:41:39.635Z,1012.78
2017-01-01T07:42:50.359Z,1012.78
2017-01-01T07:44:01.097Z,1012.75
2017-01-01T07:45:11.815Z,1012.8
2017-01-01T07:46:22.519Z,1012.83
2017-01-01T07:47:33.257Z,1012.79
2017-01-01T07:48:44.340Z,1012.82
2017-01-01T07:49:55.078Z,1012.8
2017-01-01T07:51:06.182Z,1012.82
2017-01-01T07:52:16.916Z,1012.82
2017-01-01T07:53:27.613Z,1012.76
2017-01-01T07:54:38.333Z,1012.75
2017-01-01T07:55:49.055Z,1012.74
2017-01-01T07:56:59.758Z,1012.7
2017-01-01T07:58:10.472Z,1012.67
2017-01-01T07:59:21.194Z,1012.66
2017-01-01T08:00:31.926Z,1012.67
2017-01-01T08:01:42.689Z,1012.64
2017-01-01T08:02:53.388Z,1012.7
2017-01-01T08:04:04.110Z,1012.71
2017-01-01T08:05:14.836Z,1012.7
2017-01-01T08:06:25.569Z,1012.74
2017-01-01T08:07:36.315Z,1012.73
2017-01-01T08:08:47.047Z,1012.77
2017-01-01T08:09:57.798Z,1012.77
2017-01-01T08:11:08.510Z,1012.81
2017-01-01T08:12:19.227Z,1012.79
2017-01-01T08:13:29.943Z,1012.78
2017-01-01T08:14:40.668Z,1012.8
2017-01-01T08:15:51.422Z,1012.81
2017-01-01T08:17:02.141Z,1012.85
2017-01-01T08:18:12.861Z,1012.78
2017-01-01T08:19:23.574Z,1012.76
2017-01-01T08:20:34.280Z,1012.78
2017-01-01T08:21:45.048Z,1012.76
2017-01-01T08:22:55.795Z,1012.72
2017-01-01T08:24:06.532Z,1012.71
2017-01-01T08:25:17.286Z,1012.72
2017-01-01T08:26:28.006Z,1012.7
2017-01-01T08:27:38.751Z,1012.68
2017-01-01T08:28:49.468Z,1012.69
2017-01-01T08:30:00.201Z,1012.67
2017-01-01T08:31:10.908Z,1012.66
2017-01-01T08:32:21.623Z,1012.71
2017-01-01T08:33:32.368Z,1012.72
2017-01-01T08:34:43.447Z,1012.69
2017-01-01T08:35:54.161Z,1012.68
2017-01-01T08:37:04.870Z,1012.66
2017-01-01T08:38:15.585Z,1012.66
2017-01-01T08:39:26.308Z,1012.63
2017-01-01T08:40:37.056Z,1012.61
2017-01-01T08:41:47.788Z,1012.59
2017-01-01T08:42:58.517Z,1012.61
2017-01-01T08:44:09.241Z,1012.63
2017-01-01T08:45:19.987Z,1012.56
2017-01-01T08:46:30.705Z,1012.58
2017-01-01T08:47:41.417Z,1012.67
2017-01-01T08:48:52.114Z,1012.66
2017-01-01T08:50:02.834Z,1012.66
2017-01-01T08:51:13.563Z,1012.65
2017-01-01T08:52:24.288Z,1012.65
2017-01-01T08:53:34.996Z,1012.63
2017-01-01T08:54:45.722Z,1012.63
2017-01-01T08:55:56.446Z,1012.66
2017-01-01T08:57:07.146Z,1012.57
2017-01-01T08:58:17.856Z,1012.5
2017-01-01T08:59:28.578Z,1012.51
2017-01-01T09:00:39.305Z,1012.56
2017-01-01T09:01:50.044Z,1012.54
2017-01-01T09:03:00.767Z,1012.53
2017-01-01T09:04:11.486Z,1012.59
2017-01-01T09:05:22.209Z,1012.52
2017-01-01T09:06:32.962Z,1012.5
2017-01-01T09:07:43.681Z,1012.49
2017-01-01T09:08:54.377Z,1012.45
2017-01-01T09:10:05.127Z,1012.51
2017-01-01T09:11:15.835Z,1012.47
2017-01-01T09:12:26.546Z,1012.4
2017-01-01T09:13:37.285Z,1012.44
2017-01-01T09:14:48.034Z,1012.47
2017-01-01T09:15:58.779Z,1012.46
2017-01-01T09:17:09.497Z,1012.47
2017-01-01T09:18:20.196Z,1012.43
2017-01-01T09:19:30.939Z,1012.39
2017-01-01T09:20:41.688Z,1012.41
2017-01-01T09:21:52.410Z,1012.33
2017-01-01T09:23:03.530Z,1012.27
2017-01-01T09:24:14.264Z,1012.31
2017-01-01T09:25:24.985Z,1012.32
2017-01-01T09:26:35.693Z,1012.3
2017-01-01T09:27:46.440Z,1012.34
2017-01-01T09:28:57.157Z,1012.27
2017-01-01T09:30:07.845Z,1012.28
2017-01-01T09:31:18.551Z,1012.29
2017-01-01T09:32:29.297Z,1012.23
2017-01-01T09:33:40.418Z,1012.16
2017-01-01T09:34:51.164Z,1012.15
2017-01-01T09:36:01.882Z,1012.16
2017-01-01T09:37:12.596Z,1012.09
2017-01-01T09:38:23.319Z,1012.13
2017-01-01T09:39:34.072Z,1012.11
2017-01-01T09:40:44.811Z,1012.11
2017-01-01T09:41:55.539Z,1012.06
2017-01-01T09:43:06.266Z,1012.04
2017-01-01T09:44:17.006Z,1011.99
2017-01-01T09:45:27.728Z,1011.95
2017-01-01T09:46:38.437Z,1011.95
2017-01-01T09:47:49.145Z,1011.92
2017-01-01T09:48:59.917Z,1011.87
2017-01-01T09:50:10.658Z,1011.87
2017-01-01T09:51:21.406Z,1011.79
2017-01-01T09:52:32.149Z,1011.86
2017-01-01T09:53:42.849Z,1011.91
2017-01-01T09:54:53.583Z,1011.83
2017-01-01T09:56:04.304Z,1011.82
2017-01-01T09:57:15.012Z,1011.82
2017-01-01T09:58:25.757Z,1011.8
2017-01-01T09:59:36.503Z,1011.78
2017-01-01T10:00:47.242Z,1011.79
2017-01-01T10:01:57.959Z,1011.74
2017-01-01T10:03:08.688Z,1011.71
2017-01-01T10:04:19.405Z,1011.74
2017-01-01T10:05:30.122Z,1011.73
2017-01-01T10:06:41.226Z,1011.77
2017-01-01T10:07:51.968Z,1011.77
2017-01-01T10:09:02.671Z,1011.74
2017-01-01T10:10:13.363Z,1011.77
2017-01-01T10:11:24.488Z,1011.69
2017-01-01T10:12:35.208Z,1011.73
2017-01-01T10:13:45.928Z,1011.67
2017-01-01T10:14:56.664Z,1011.7
2017-01-01T10:16:07.385Z,1011.65
2017-01-01T10:17:18.109Z,1011.62
2017-01-01T10:18:28.841Z,1011.68
2017-01-01T10:19:39.572Z,1011.63
2017-01-01T10:20:50.271Z,1011.63
2017-01-01T10:22:01.018Z,1011.67
2017-01-01T10:23:11.741Z,1011.65
2017-01-01T10:24:22.479Z,1011.66
2017-01-01T10:25:33.205Z,1011.65
2017-01-01T10:26:43.932Z,1011.61
2017-01-01T10:27:54.646Z,1011.59
2017-01-01T10:29:05.413Z,1011.6
2017-01-01T10:30:16.138Z,1011.53
2017-01-01T10:31:26.894Z,1011.55
2017-01-01T10:32:37.611Z,1011.52
2017-01-01T10:33:48.334Z,1011.54
2017-01-01T10:34:59.067Z,1011.54
2017-01-01T10:36:09.793Z,1011.5
2017-01-01T10:37:20.920Z,1011.52
2017-01-01T10:38:31.645Z,1011.48
2017-01-01T10:39:42.383Z,1011.49
2017-01-01T10:40:53.126Z,1011.47
2017-01-01T10:42:03.878Z,1011.43
2017-01-01T10:43:14.621Z,1011.46
2017-01-01T10:44:25.320Z,1011.43
2017-01-01T10:45:36.063Z,1011.46
2017-01-01T10:46:46.784Z,1011.41
2017-01-01T10:47:57.505Z,1011.41
2017-01-01T10:49:08.254Z,1011.37
2017-01-01T10:50:18.973Z,1011.3
2017-01-01T10:51:29.721Z,1011.34
2017-01-01T10:52:40.463Z,1011.32
2017-01-01T10:53:51.184Z,1011.27
2017-01-01T10:55:01.933Z,1011.28
2017-01-01T10:56:12.668Z,1011.28
2017-01-01T10:57:23.372Z,1011.28
2017-01-01T10:58:34.094Z,1011.26
2017-01-01T10:59:44.832Z,1011.24
2017-01-01T11:00:55.567Z,1011.19
2017-01-01T11:02:06.305Z,1011.13
2017-01-01T11:03:17.031Z,1011.14
2017-01-01T11:04:27.777Z,1011.14
2017-01-01T11:05:38.519Z,1011.09
2017-01-01T11:06:49.242Z,1011.09
2017-01-01T11:07:59.968Z,1011.09
2017-01-01T11:09:10.706Z,1011.08
2017-01-01T11:10:21.448Z,1011.11
2017-01-01T11:11:32.151Z,1011.06
2017-01-01T11:12:42.894Z,1011.1
2017-01-01T11:13:53.607Z,1011.05
2017-01-01T11:15:04.314Z,1010.97
2017-01-01T11:16:15.036Z,1010.9
2017-01-01T11:17:25.782Z,1010.94
2017-01-01T11:18:36.531Z,1010.94
2017-01-01T11:19:47.262Z,1010.98
2017-01-01T11:20:57.992Z,1010.97
2017-01-01T11:22:08.711Z,1010.97
2017-01-01T11:23:19.432Z,1010.93
2017-01-01T11:24:30.154Z,1010.9
2017-01-01T11:25:40.899Z,1010.88
2017-01-01T11:26:51.601Z,1010.83
2017-01-01T11:28:02.334Z,1010.81
2017-01-01T11:29:13.039Z,1010.82
2017-01-01T11:30:23.783Z,1010.83
2017-01-01T11:31:34.529Z,1010.82
2017-01-01T11:32:45.253Z,1010.83
2017-01-01T11:33:55.995Z,1010.78
2017-01-01T11:35:06.738Z,1010.72
2017-01-01T11:36:17.459Z,1010.7
2017-01-01T11:37:28.176Z,1010.7
2017-01-01T11:38:38.908Z,1010.61
2017-01-01T11:39:49.630Z,1010.62
2017-01-01T11:41:00.375Z,1010.66
2017-01-01T11:42:11.120Z,1010.69
2017-01-01T11:43:21.833Z,1010.75
2017-01-01T11:44:32.555Z,1010.72
2017-01-01T11:45:43.280Z,1010.66
2017-01-01T11:46:54.029Z,1010.69
2017-01-01T11:48:04.748Z,1010.7
2017-01-01T11:49:15.492Z,1010.78
2017-01-01T11:50:26.188Z,1010.72
2017-01-01T11:51:36.930Z,1010.77
2017-01-01T11:52:47.673Z,1010.77
2017-01-01T11:53:58.372Z,1010.71
2017-01-01T11:55:09.161Z,1010.74
2017-01-01T11:56:19.899Z,1010.78
2017-01-01T11:57:30.606Z,1010.7
2017-01-01T11:58:41.335Z,1010.69
2017-01-01T11:59:52.041Z,1010.67
2017-01-01T12:01:02.778Z,1010.64
2017-01-01T12:02:13.497Z,1010.66
2017-01-01T12:03:24.219Z,1010.65
2017-01-01T12:04:34.965Z,1010.65
2017-01-01T12:05:45.689Z,1010.65
2017-01-01T12:06:56.432Z,1010.64
2017-01-01T12:08:07.180Z,1010.58
2017-01-01T12:09:17.927Z,1010.63
2017-01-01T12:10:28.673Z,1010.54
2017-01-01T12:11:39.436Z,1010.54
2017-01-01T12:12:50.140Z,1010.51
2017-01-01T12:14:00.877Z,1010.52
2017-01-01T12:15:11.595Z,1010.53
2017-01-01T12:16:22.351Z,1010.51
2017-01-01T12:17:33.073Z,1010.48
2017-01-01T12:18:43.796Z,1010.43
2017-01-01T12:19:54.538Z,1010.46
2017-01-01T12:21:05.278Z,1010.4
2017-01-01T12:22:16.028Z,1010.42
2017-01-01T12:23:26.749Z,1010.41
2017-01-01T12:24:37.500Z,1010.44
2017-01-01T12:25:48.246Z,1010.38
2017-01-01T12:26:58.963Z,1010.42
2017-01-01T12:28:09.713Z,1010.4
2017-01-01T12:29:20.434Z,1010.37
2017-01-01T12:30:31.179Z,1010.35
2017-01-01T12:31:41.900Z,1010.32
2017-01-01T12:32:52.643Z,1010.32
2017-01-01T12:34:03.381Z,1010.25
2017-01-01T12:35:14.493Z,1010.26
2017-01-01T12:36:25.238Z,1010.21
2017-01-01T12:37:35.948Z,1010.22
2017-01-01T12:38:46.678Z,1010.19
2017-01-01T12:39:57.394Z,1010.2
2017-01-01T12:41:08.140Z,1010.16
2017-01-01T12:42:18.861Z,1010.2
2017-01-01T12:43:29.603Z,1010.19
2017-01-01T12:44:40.329Z,1010.22
2017-01-01T12:45:51.055Z,1010.16
2017-01-01T12:47:01.799Z,1010.17
2017-01-01T12:48:12.516Z,1010.14
2017-01-01T12:49:23.255Z,1010.12
2017-01-01T12:50:33.976Z,1010.17
2017-01-01T12:51:44.700Z,1010.14
2017-01-01T12:52:55.453Z,1010.16
2017-01-01T12:54:06.191Z,1010.12
2017-01-01T12:55:16.924Z,1010.09
2017-01-01T12:56:27.642Z,1010.14
2017-01-01T12:57:38.381Z,1010.11
2017-01-01T12:58:49.109Z,1010.13
2017-01-01T12:59:59.894Z,1010.1
2017-01-01T13:01:10.598Z,1010.12
2017-01-01T13:02:21.347Z,1010.09
2017-01-01T13:03:32.090Z,1010.1
2017-01-01T13:04:42.795Z,1010.13
2017-01-01T13:05:53.532Z,1010.11
2017-01-01T13:07:04.254Z,1010.09
2017-01-01T13:08:14.992Z,1010.1
2017-01-01T13:09:25.696Z,1010.17
2017-01-01T13:10:36.385Z,1010.19
2017-01-01T13:11:47.109Z,1010.27
2017-01-01T13:12:57.839Z,1010.26
2017-01-01T13:14:08.535Z,1010.23
2017-01-01T13:15:19.285Z,1010.25
2017-01-01T13:16:30.002Z,1010.23
2017-01-01T13:17:40.749Z,1010.25
2017-01-01T13:18:51.494Z,1010.23
2017-01-01T13:20:02.228Z,1010.24
2017-01-01T13:21:12.943Z,1010.23
2017-01-01T13:22:23.671Z,1010.27
2017-01-01T13:23:34.382Z,1010.21
2017-01-01T13:24:45.113Z,1010.21
2017-01-01T13:25:55.816Z,1010.17
2017-01-01T13:27:06.542Z,1010.15
2017-01-01T13:28:17.280Z,1010.12
2017-01-01T13:29:28.023Z,1010.11
2017-01-01T13:30:38.726Z,1010.08
2017-01-01T13:31:49.496Z,1010.12
2017-01-01T13:33:00.196Z,1010.09
2017-01-01T13:34:11.316Z,1010.09
2017-01-01T13:35:22.060Z,1010.1
2017-01-01T13:36:32.810Z,1010.13
2017-01-01T13:37:43.544Z,1010.14
2017-01-01T13:38:54.244Z,1010.13
2017-01-01T13:40:04.997Z,1010.15
2017-01-01T13:41:15.737Z,1010.12
2017-01-01T13:42:26.441Z,1010.16
2017-01-01T13:43:37.158Z,1010.16
2017-01-01T13:44:47.875Z,1010.14
2017-01-01T13:45:58.620Z,1010.16
2017-01-01T13:47:09.349Z,1010.16
2017-01-01T13:48:20.071Z,1010.13
2017-01-01T13:49:30.788Z,1010.1
2017-01-01T13:50:41.514Z,1010.15
2017-01-01T13:51:52.233Z,1010.1
2017-01-01T13:53:02.976Z,1010.11
2017-01-01T13:54:13.716Z,1010.14
2017-01-01T13:55:24.421Z,1010.12
2017-01-01T13:56:35.161Z,1010.15
2017-01-01T13:57:45.917Z,1010.11
2017-01-01T13:58:56.648Z,1010.13
2017-01-01T14:00:07.377Z,1010.17
2017-01-01T14:01:18.129Z,1010.15
2017-01-01T14:02:28.866Z,1010.23
2017-01-01T14:03:39.608Z,1010.17
2017-01-01T14:04:50.342Z,1010.22
2017-01-01T14:06:01.061Z,1010.2
2017-01-01T14:07:11.808Z,1010.2
2017-01-01T14:08:22.525Z,1010.19
2017-01-01T14:09:33.239Z,1010.17
2017-01-01T14:10:43.963Z,1010.15
2017-01-01T14:11:54.667Z,1010.11
2017-01-01T14:13:05.401Z,1010.16
2017-01-01T14:14:16.136Z,1010.14
2017-01-01T14:15:26.857Z,1010.05
2017-01-01T14:16:37.602Z,1010.08
2017-01-01T14:17:48.323Z,1010.07
2017-01-01T14:18:59.041Z,1010.07